createdAt,value
2019-03-28T00:00:47.221Z,26.65
2019-03-28T00:03:17.897Z,27.35
2019-03-28T00:05:46.385Z,26.85
2019-03-28T00:08:17.596Z,28.45
2019-03-28T00:10:48.048Z,27.52
2019-03-28T00:13:16.291Z,29.65
2019-03-28T00:15:44.844Z,28.30
2019-03-28T00:18:14.444Z,28.25
2019-03-28T00:20:42.932Z,30.65
2019-03-28T00:23:14.656Z,28.47
2019-03-28T00:25:43.169Z,29.50
2019-03-28T00:28:13.330Z,28.57
2019-03-28T00:30:42.031Z,29.12
2019-03-28T00:33:10.660Z,31.47
2019-03-28T00:35:39.224Z,32.00
2019-03-28T00:38:07.780Z,30.45
2019-03-28T00:40:36.573Z,31.20
2019-03-28T00:43:05.140Z,31.27
2019-03-28T00:45:33.693Z,31.02
2019-03-28T00:48:02.187Z,32.42
2019-03-28T00:50:33.071Z,32.08
2019-03-28T00:53:02.473Z,31.70
2019-03-28T00:55:31.042Z,32.33
2019-03-28T00:57:59.608Z,33.35
2019-03-28T01:00:28.245Z,33.73
2019-03-28T01:02:56.754Z,33.75
2019-03-28T01:05:25.323Z,34.08
2019-03-28T01:07:55.511Z,32.33
2019-03-28T01:10:24.215Z,34.08
2019-03-28T01:12:53.104Z,33.38
2019-03-28T01:15:21.963Z,32.88
2019-03-28T01:17:51.816Z,33.80
2019-03-28T01:20:20.369Z,34.33
2019-03-28T01:22:48.916Z,33.42
2019-03-28T01:25:17.435Z,33.58
2019-03-28T01:27:45.921Z,32.43
2019-03-28T01:30:14.839Z,31.80
2019-03-28T01:32:43.360Z,34.25
2019-03-28T01:35:11.868Z,33.08
2019-03-28T01:37:41.993Z,33.08
2019-03-28T01:40:10.557Z,34.23
2019-03-28T01:42:39.775Z,34.05
2019-03-28T01:45:09.094Z,34.50
2019-03-28T01:47:37.734Z,35.03
2019-03-28T01:50:07.787Z,35.15
2019-03-28T01:52:36.411Z,34.55
2019-03-28T01:55:07.550Z,35.25
2019-03-28T01:57:36.016Z,34.80
2019-03-28T02:00:10.195Z,34.45
2019-03-28T02:02:38.758Z,35.50
2019-03-28T02:05:09.346Z,34.92
2019-03-28T02:07:37.920Z,35.65
2019-03-28T02:10:06.898Z,36.58
2019-03-28T02:12:35.421Z,36.83
2019-03-28T02:15:07.716Z,35.85
2019-03-28T02:17:36.280Z,36.65
2019-03-28T02:20:10.413Z,35.78
2019-03-28T02:22:39.399Z,37.25
2019-03-28T02:25:09.477Z,38.30
2019-03-28T02:27:37.986Z,37.10
2019-03-28T02:30:08.339Z,36.73
2019-03-28T02:32:36.897Z,36.42
2019-03-28T02:35:06.313Z,35.70
2019-03-28T02:37:34.887Z,38.48
2019-03-28T02:40:05.774Z,36.83
2019-03-28T02:42:34.342Z,36.53
2019-03-28T02:45:03.836Z,39.15
2019-03-28T02:47:32.628Z,37.83
2019-03-28T02:50:01.310Z,38.38
2019-03-28T02:52:29.856Z,37.08
2019-03-28T02:54:58.410Z,37.90
2019-03-28T02:57:40.316Z,37.10
2019-03-28T02:59:57.260Z,38.17
2019-03-28T03:02:27.297Z,38.38
2019-03-28T03:04:57.061Z,39.05
2019-03-28T03:07:25.591Z,38.05
2019-03-28T03:09:54.173Z,39.05
2019-03-28T03:12:22.760Z,39.83
2019-03-28T03:14:51.310Z,36.85
2019-03-28T03:17:19.886Z,39.13
2019-03-28T03:19:48.604Z,37.15
2019-03-28T03:22:17.105Z,38.30
2019-03-28T03:24:45.736Z,36.55
2019-03-28T03:27:14.323Z,39.63
2019-03-28T03:29:43.018Z,37.83
2019-03-28T03:32:12.736Z,36.77
2019-03-28T03:34:41.388Z,36.40
2019-03-28T03:37:09.978Z,36.35
2019-03-28T03:39:39.728Z,36.33
2019-03-28T03:42:08.537Z,35.83
2019-03-28T03:44:37.132Z,37.40
2019-03-28T03:47:08.980Z,38.30
2019-03-28T03:49:37.727Z,37.13
2019-03-28T03:52:06.335Z,37.30
2019-03-28T03:54:34.907Z,38.17
2019-03-28T03:57:04.383Z,36.93
2019-03-28T03:59:33.147Z,38.55
2019-03-28T04:02:01.690Z,36.55
2019-03-28T04:04:31.623Z,37.25
2019-03-28T04:07:00.218Z,37.28
2019-03-28T04:09:28.763Z,36.35
2019-03-28T04:11:57.322Z,38.33
2019-03-28T04:14:25.937Z,36.55
2019-03-28T04:16:55.580Z,37.85
2019-03-28T04:19:24.726Z,38.38
2019-03-28T04:21:53.237Z,37.45
2019-03-28T04:24:21.940Z,37.93
2019-03-28T04:26:50.665Z,36.48
2019-03-28T04:29:19.238Z,37.50
2019-03-28T04:31:47.791Z,36.77
2019-03-28T04:34:16.363Z,38.75
2019-03-28T04:36:44.944Z,36.15
2019-03-28T04:39:18.520Z,39.30
2019-03-28T04:41:47.098Z,36.40
2019-03-28T04:44:15.672Z,36.60
2019-03-28T04:46:44.235Z,37.45
2019-03-28T04:49:15.733Z,38.97
2019-03-28T04:51:44.542Z,40.98
2019-03-28T04:54:13.091Z,38.17
2019-03-28T04:57:01.309Z,39.67
2019-03-28T04:59:29.843Z,37.67
2019-03-28T05:02:03.438Z,40.52
2019-03-28T05:04:30.075Z,39.88
2019-03-28T05:07:01.298Z,38.48
2019-03-28T05:09:30.125Z,37.25
2019-03-28T05:11:59.427Z,36.93
2019-03-28T05:14:28.162Z,38.13
2019-03-28T05:16:56.713Z,39.63
2019-03-28T05:19:25.216Z,38.92
2019-03-28T05:21:53.692Z,37.83
2019-03-28T05:24:25.242Z,38.58
2019-03-28T05:26:54.696Z,38.30
2019-03-28T05:29:23.383Z,37.85
2019-03-28T05:31:51.937Z,36.93
2019-03-28T05:34:20.539Z,38.90
2019-03-28T05:36:51.978Z,36.68
2019-03-28T05:39:19.846Z,38.15
2019-03-28T05:41:49.794Z,36.75
2019-03-28T05:44:30.237Z,37.08
2019-03-28T05:47:03.965Z,39.75
2019-03-28T05:49:32.675Z,37.05
2019-03-28T05:52:01.169Z,36.20
2019-03-28T05:54:29.857Z,37.55
2019-03-28T05:56:58.444Z,37.67
2019-03-28T05:59:27.073Z,36.58
2019-03-28T06:01:55.755Z,35.10
2019-03-28T06:04:24.382Z,36.73
2019-03-28T06:06:54.294Z,36.83
2019-03-28T06:09:22.872Z,35.48
2019-03-28T06:11:52.949Z,38.13
2019-03-28T06:14:21.843Z,35.33
2019-03-28T06:16:50.406Z,35.90
2019-03-28T06:19:18.975Z,34.80
2019-03-28T06:21:47.723Z,34.85
2019-03-28T06:24:16.494Z,33.55
2019-03-28T06:26:45.096Z,34.27
2019-03-28T06:29:23.306Z,35.73
2019-03-28T06:31:54.681Z,35.15
2019-03-28T06:34:14.066Z,33.08
2019-03-28T06:36:42.573Z,34.78
2019-03-28T06:39:11.140Z,35.52
2019-03-28T06:41:39.685Z,32.55
2019-03-28T06:44:08.273Z,35.85
2019-03-28T06:46:36.838Z,32.70
2019-03-28T06:49:05.323Z,31.75
2019-03-28T06:51:34.572Z,38.65
2019-03-28T06:54:04.705Z,30.95
2019-03-28T06:56:33.258Z,30.45
2019-03-28T06:59:03.375Z,29.75
2019-03-28T07:01:31.962Z,26.12
2019-03-28T07:04:01.874Z,26.93
2019-03-28T07:06:30.393Z,27.80
2019-03-28T07:08:59.021Z,23.47
2019-03-28T07:11:28.456Z,23.85
2019-03-28T07:13:57.397Z,20.52
2019-03-28T07:16:25.899Z,18.27
2019-03-28T07:18:54.656Z,15.35
2019-03-28T07:21:24.486Z,14.95
2019-03-28T07:23:54.604Z,18.98
2019-03-28T07:26:24.757Z,15.07
2019-03-28T07:28:54.376Z,20.10
2019-03-28T07:31:24.099Z,22.03
2019-03-28T07:33:52.648Z,20.88
2019-03-28T07:36:21.214Z,21.93
2019-03-28T07:38:50.373Z,24.32
2019-03-28T07:41:18.950Z,23.45
2019-03-28T07:43:47.509Z,24.57
2019-03-28T07:46:16.270Z,25.27
2019-03-28T07:48:45.007Z,25.60
2019-03-28T07:51:13.537Z,23.25
2019-03-28T07:53:42.056Z,23.27
2019-03-28T07:56:10.730Z,27.00
2019-03-28T07:58:39.505Z,24.20
2019-03-28T08:01:09.881Z,23.02
2019-03-28T08:03:40.067Z,23.77
2019-03-28T08:06:08.894Z,22.62
2019-03-28T08:08:38.928Z,22.65
2019-03-28T08:11:10.104Z,22.95
2019-03-28T08:13:38.651Z,19.42
2019-03-28T08:16:07.255Z,20.08
2019-03-28T08:18:36.016Z,21.60
2019-03-28T08:21:04.912Z,22.17
2019-03-28T08:23:35.465Z,22.42
2019-03-28T08:26:04.959Z,22.40
2019-03-28T08:28:33.503Z,20.52
2019-03-28T08:31:02.112Z,21.23
2019-03-28T08:33:31.880Z,21.12
2019-03-28T08:36:02.211Z,18.85
2019-03-28T08:38:32.775Z,20.45
2019-03-28T08:41:01.566Z,19.35
2019-03-28T08:43:30.058Z,19.32
2019-03-28T08:45:58.704Z,17.00
2019-03-28T08:48:27.338Z,14.18
2019-03-28T08:50:55.929Z,13.60
2019-03-28T08:53:24.493Z,13.32
2019-03-28T08:55:53.444Z,13.55
2019-03-28T08:58:22.043Z,13.08
2019-03-28T09:00:52.580Z,13.40
2019-03-28T09:03:20.868Z,13.50
2019-03-28T09:05:49.451Z,12.93
2019-03-28T09:08:18.101Z,13.60
2019-03-28T09:10:48.328Z,12.85
2019-03-28T09:13:17.090Z,12.10
2019-03-28T09:15:46.109Z,12.25
2019-03-28T09:18:14.661Z,13.00
2019-03-28T09:20:43.265Z,18.02
2019-03-28T09:23:11.750Z,14.47
2019-03-28T09:25:40.234Z,15.05
2019-03-28T09:28:08.804Z,15.30
2019-03-28T09:30:47.878Z,15.58
2019-03-28T09:33:09.685Z,17.40
2019-03-28T09:35:38.262Z,18.57
2019-03-28T09:38:06.849Z,19.50
2019-03-28T09:40:35.476Z,21.30
2019-03-28T09:43:05.183Z,22.93
2019-03-28T09:45:33.746Z,24.40
2019-03-28T09:48:02.250Z,21.95
2019-03-28T09:50:30.816Z,21.23
2019-03-28T09:53:00.670Z,21.95
2019-03-28T09:55:29.518Z,19.55
2019-03-28T09:57:58.089Z,18.00
2019-03-28T10:00:26.797Z,18.35
2019-03-28T10:02:56.911Z,18.12
2019-03-28T10:05:25.459Z,19.32
2019-03-28T10:07:54.008Z,18.40
2019-03-28T10:10:22.543Z,21.48
2019-03-28T10:12:51.097Z,22.35
2019-03-28T10:15:19.719Z,20.45
2019-03-28T10:17:48.332Z,20.10
2019-03-28T10:20:17.025Z,17.32
2019-03-28T10:22:45.592Z,17.80
2019-03-28T10:25:14.835Z,19.55
2019-03-28T10:27:43.430Z,20.08
2019-03-28T10:30:12.512Z,19.82
2019-03-28T10:32:46.623Z,19.17
2019-03-28T10:35:18.198Z,19.10
2019-03-28T10:37:46.693Z,18.52
2019-03-28T10:40:15.278Z,19.60
2019-03-28T10:42:43.775Z,19.35
2019-03-28T10:45:12.413Z,20.55
2019-03-28T10:47:40.973Z,22.58
2019-03-28T10:50:09.602Z,22.42
2019-03-28T10:52:38.170Z,22.50
2019-03-28T10:55:07.381Z,21.82
2019-03-28T10:57:36.263Z,21.48
2019-03-28T11:00:08.601Z,21.38
2019-03-28T11:02:37.201Z,22.35
2019-03-28T11:05:07.211Z,22.90
2019-03-28T11:07:35.722Z,23.85
2019-03-28T11:10:06.999Z,23.67
2019-03-28T11:12:36.041Z,23.35
2019-03-28T11:15:06.785Z,22.52
2019-03-28T11:17:36.688Z,19.20
2019-03-28T11:20:06.997Z,24.55
2019-03-28T11:22:35.646Z,26.00
2019-03-28T11:25:06.596Z,24.52
2019-03-28T11:27:35.149Z,25.85
2019-03-28T11:30:11.695Z,25.00
2019-03-28T11:32:40.248Z,24.37
2019-03-28T11:35:08.870Z,24.35
2019-03-28T11:37:37.696Z,25.05
2019-03-28T11:40:09.336Z,23.30
2019-03-28T11:42:38.271Z,23.30
2019-03-28T11:45:09.514Z,21.55
2019-03-28T11:47:38.601Z,20.52
2019-03-28T11:50:09.029Z,22.45
2019-03-28T11:52:37.589Z,23.70
2019-03-28T11:55:09.293Z,22.35
2019-03-28T11:57:38.675Z,21.25
2019-03-28T12:00:11.107Z,21.12
2019-03-28T12:02:40.673Z,22.37
2019-03-28T12:05:09.470Z,21.73
2019-03-28T12:07:38.544Z,23.35
2019-03-28T12:10:08.987Z,24.30
2019-03-28T12:12:37.475Z,22.60
2019-03-28T12:15:12.184Z,23.62
2019-03-28T12:17:40.815Z,20.80
2019-03-28T12:20:10.854Z,22.48
2019-03-28T12:22:39.633Z,21.60
2019-03-28T12:25:08.578Z,21.37
2019-03-28T12:27:37.054Z,19.12
2019-03-28T12:30:19.050Z,19.62
2019-03-28T12:32:47.693Z,18.50
2019-03-28T12:35:16.305Z,17.32
2019-03-28T12:37:46.528Z,19.35
2019-03-28T12:40:15.447Z,19.80
2019-03-28T12:42:44.029Z,18.63
2019-03-28T12:45:14.529Z,20.60
2019-03-28T12:47:43.398Z,18.12
2019-03-28T12:50:13.209Z,18.15
2019-03-28T12:52:42.016Z,19.45
2019-03-28T12:55:11.107Z,14.45
2019-03-28T12:57:39.645Z,14.53
2019-03-28T13:00:10.639Z,15.15
2019-03-28T13:02:39.277Z,13.80
2019-03-28T13:05:10.208Z,16.15
2019-03-28T13:07:39.372Z,15.43
2019-03-28T13:10:10.620Z,15.32
2019-03-28T13:12:39.155Z,16.12
2019-03-28T13:15:09.565Z,16.12
2019-03-28T13:17:38.129Z,15.08
2019-03-28T13:20:09.697Z,15.03
2019-03-28T13:22:38.430Z,15.58
2019-03-28T13:25:07.922Z,14.87
2019-03-28T13:27:36.966Z,15.80
2019-03-28T13:30:08.905Z,16.32
2019-03-28T13:32:42.114Z,15.50
2019-03-28T13:35:08.507Z,16.02
2019-03-28T13:37:37.205Z,15.05
2019-03-28T13:40:11.497Z,14.83
2019-03-28T13:42:39.990Z,15.90
2019-03-28T13:45:11.147Z,15.53
2019-03-28T13:47:39.614Z,15.60
2019-03-28T13:50:10.704Z,15.10
2019-03-28T13:52:39.233Z,15.68
2019-03-28T13:55:08.250Z,17.17
2019-03-28T13:57:38.287Z,15.93
2019-03-28T14:00:08.162Z,17.15
2019-03-28T14:02:36.999Z,16.67
2019-03-28T14:05:07.518Z,17.90
2019-03-28T14:07:36.474Z,19.15
2019-03-28T14:10:09.168Z,19.30
2019-03-28T14:12:38.875Z,19.77
2019-03-28T14:15:08.276Z,21.68
2019-03-28T14:17:36.745Z,21.70
2019-03-28T14:20:10.637Z,22.10
2019-03-28T14:22:39.263Z,22.62
2019-03-28T14:25:07.963Z,22.95
2019-03-28T14:27:37.311Z,23.30
2019-03-28T14:30:09.585Z,23.15
2019-03-28T14:32:52.133Z,24.03
2019-03-28T14:35:08.680Z,22.32
2019-03-28T14:37:40.557Z,23.42
2019-03-28T14:40:12.003Z,23.83
2019-03-28T14:42:40.959Z,23.67
2019-03-28T14:45:10.963Z,23.32
2019-03-28T14:47:39.531Z,22.52
2019-03-28T14:50:08.956Z,22.85
2019-03-28T14:52:37.476Z,23.10
2019-03-28T14:55:06.071Z,21.07
2019-03-28T14:57:35.695Z,21.87
2019-03-28T15:00:07.932Z,22.32
2019-03-28T15:02:36.597Z,23.92
2019-03-28T15:05:06.403Z,22.55
2019-03-28T15:07:34.863Z,20.62
2019-03-28T15:10:04.602Z,21.37
2019-03-28T15:12:33.075Z,20.82
2019-03-28T15:15:01.546Z,21.00
2019-03-28T15:17:30.085Z,19.67
2019-03-28T15:19:59.010Z,20.67
2019-03-28T15:22:27.596Z,21.33
2019-03-28T15:24:57.794Z,20.60
2019-03-28T15:27:26.657Z,20.25
2019-03-28T15:30:14.500Z,19.67
2019-03-28T15:32:48.747Z,19.98
2019-03-28T15:35:17.224Z,21.37
2019-03-28T15:37:45.742Z,21.07
2019-03-28T15:40:16.211Z,21.13
2019-03-28T15:42:45.014Z,21.25
2019-03-28T15:45:13.613Z,19.07
2019-03-28T15:47:43.610Z,20.68
2019-03-28T15:50:12.503Z,18.70
2019-03-28T15:52:40.963Z,17.92
2019-03-28T15:55:10.249Z,18.45
2019-03-28T15:57:40.823Z,19.10
2019-03-28T16:00:10.673Z,15.18
2019-03-28T16:02:40.551Z,14.63
2019-03-28T16:05:09.146Z,15.30
2019-03-28T16:07:37.610Z,15.05
2019-03-28T16:10:07.691Z,13.30
2019-03-28T16:12:36.181Z,13.58
2019-03-28T16:15:07.071Z,13.78
2019-03-28T16:17:35.604Z,14.55
2019-03-28T16:20:06.108Z,13.48
2019-03-28T16:22:34.588Z,14.80
2019-03-28T16:25:03.379Z,12.98
2019-03-28T16:27:31.874Z,14.07
2019-03-28T16:30:00.589Z,14.40
2019-03-28T16:32:29.172Z,14.40
2019-03-28T16:34:57.646Z,14.73
2019-03-28T16:37:26.228Z,13.58
2019-03-28T16:39:54.823Z,12.75
2019-03-28T16:42:23.303Z,13.88
2019-03-28T16:45:11.962Z,13.83
2019-03-28T16:47:41.276Z,14.15
2019-03-28T16:50:10.148Z,14.83
2019-03-28T16:52:38.824Z,14.63
2019-03-28T16:55:08.699Z,13.68
2019-03-28T16:57:37.283Z,13.75
2019-03-28T17:00:15.140Z,14.28
2019-03-28T17:02:45.128Z,15.72
2019-03-28T17:05:34.752Z,14.33
2019-03-28T17:08:04.969Z,13.32
2019-03-28T17:10:45.387Z,13.95
2019-03-28T17:13:15.006Z,14.78
2019-03-28T17:15:43.893Z,13.28
2019-03-28T17:18:14.486Z,14.78
2019-03-28T17:20:44.800Z,13.35
2019-03-28T17:23:14.878Z,15.13
2019-03-28T17:25:43.415Z,14.33
2019-03-28T17:28:11.915Z,14.65
2019-03-28T17:30:40.572Z,14.43
2019-03-28T17:33:11.484Z,14.15
2019-03-28T17:35:41.084Z,12.75
2019-03-28T17:38:09.544Z,13.43
2019-03-28T17:40:39.458Z,13.98
2019-03-28T17:43:11.065Z,14.00
2019-03-28T17:45:39.534Z,13.72
2019-03-28T17:48:10.470Z,14.00
2019-03-28T17:50:40.256Z,14.10
2019-03-28T17:53:08.935Z,13.25
2019-03-28T17:55:39.017Z,14.80
2019-03-28T17:58:08.076Z,15.08
2019-03-28T18:00:36.617Z,15.40
2019-03-28T18:03:09.513Z,13.65
2019-03-28T18:05:35.452Z,14.90
2019-03-28T18:08:04.655Z,15.20
2019-03-28T18:10:37.308Z,14.05
2019-03-28T18:13:06.312Z,15.63
2019-03-28T18:15:34.806Z,14.53
2019-03-28T18:18:03.396Z,15.63
2019-03-28T18:20:31.909Z,15.50
2019-03-28T18:23:01.409Z,15.95
2019-03-28T18:25:30.549Z,15.93
2019-03-28T18:28:00.764Z,16.35
2019-03-28T18:30:31.304Z,17.12
2019-03-28T18:32:59.833Z,16.55
2019-03-28T18:35:28.313Z,16.52
2019-03-28T18:37:56.805Z,16.57
2019-03-28T18:40:27.167Z,16.85
2019-03-28T18:42:55.723Z,17.30
2019-03-28T18:45:24.301Z,17.07
2019-03-28T18:47:58.648Z,17.30
2019-03-28T18:50:29.086Z,16.90
2019-03-28T18:52:58.397Z,17.23
2019-03-28T18:55:26.920Z,18.37
2019-03-28T18:57:55.374Z,18.02
2019-03-28T19:00:26.567Z,19.57
2019-03-28T19:02:56.560Z,19.17
2019-03-28T19:05:25.216Z,19.05
2019-03-28T19:07:58.111Z,20.90
2019-03-28T19:10:26.735Z,20.17
2019-03-28T19:12:55.208Z,19.70
2019-03-28T19:15:26.115Z,19.40
2019-03-28T19:17:56.674Z,20.48
2019-03-28T19:20:25.158Z,21.17
2019-03-28T19:22:56.321Z,22.03
2019-03-28T19:25:25.323Z,21.62
2019-03-28T19:27:53.947Z,19.77
2019-03-28T19:30:31.093Z,21.57
2019-03-28T19:32:59.610Z,21.68
2019-03-28T19:35:33.064Z,22.27
2019-03-28T19:37:58.965Z,21.30
2019-03-28T19:40:29.828Z,22.65
2019-03-28T19:42:58.317Z,22.58
2019-03-28T19:45:37.033Z,22.42
2019-03-28T19:48:06.117Z,24.32
2019-03-28T19:50:43.285Z,23.35
2019-03-28T19:53:12.164Z,23.62
2019-03-28T19:55:43.547Z,22.73
2019-03-28T19:58:13.736Z,23.52
2019-03-28T20:00:43.830Z,22.60
2019-03-28T20:03:12.493Z,22.98
2019-03-28T20:05:47.536Z,23.30
2019-03-28T20:08:15.956Z,23.02
2019-03-28T20:10:41.419Z,23.50
2019-03-28T20:13:09.975Z,22.70
2019-03-28T20:15:38.943Z,24.50
2019-03-28T20:18:07.470Z,21.62
2019-03-28T20:20:35.951Z,24.50
2019-03-28T20:23:06.397Z,20.08
2019-03-28T20:25:35.043Z,19.67
2019-03-28T20:28:06.981Z,20.43
2019-03-28T20:30:35.870Z,21.27
2019-03-28T20:33:05.508Z,21.10
2019-03-28T20:35:33.970Z,21.37
2019-03-28T20:38:03.706Z,24.23
2019-03-28T20:40:35.856Z,21.70
2019-03-28T20:43:07.774Z,20.62
2019-03-28T20:45:36.778Z,20.55
2019-03-28T20:48:07.482Z,22.82
2019-03-28T20:50:37.102Z,21.97
2019-03-28T20:53:05.961Z,22.40
2019-03-28T20:55:37.799Z,22.70
2019-03-28T20:58:07.545Z,24.67
2019-03-28T21:00:45.121Z,22.90
2019-03-28T21:03:16.394Z,22.55
2019-03-28T21:05:47.030Z,22.02
2019-03-28T21:08:17.571Z,22.67
2019-03-28T21:10:46.103Z,22.82
2019-03-28T21:13:15.754Z,24.57
2019-03-28T21:15:45.753Z,22.37
2019-03-28T21:18:14.529Z,20.55
2019-03-28T21:20:44.524Z,21.87
2019-03-28T21:23:13.174Z,24.17
2019-03-28T21:25:41.672Z,26.85
2019-03-28T21:28:13.534Z,29.60
2019-03-28T21:30:47.202Z,30.10
2019-03-28T21:33:10.604Z,28.60
2019-03-28T21:35:39.421Z,29.30
2019-03-28T21:38:08.038Z,25.97
2019-03-28T21:40:38.231Z,23.95
2019-03-28T21:43:07.356Z,28.73
2019-03-28T21:45:35.960Z,26.75
2019-03-28T21:48:06.533Z,27.82
2019-03-28T21:50:35.060Z,29.20
2019-03-28T21:53:05.113Z,28.70
2019-03-28T21:55:34.008Z,31.80
2019-03-28T21:58:04.937Z,30.80
2019-03-28T22:00:34.914Z,29.20
2019-03-28T22:03:04.858Z,29.32
2019-03-28T22:05:33.335Z,28.47
2019-03-28T22:08:02.268Z,27.42
2019-03-28T22:10:31.090Z,21.85
2019-03-28T22:12:59.547Z,21.97
2019-03-28T22:15:28.112Z,23.85
2019-03-28T22:17:56.583Z,28.42
2019-03-28T22:20:25.180Z,31.07
2019-03-28T22:22:54.998Z,33.30
2019-03-28T22:25:23.799Z,34.05
2019-03-28T22:27:52.248Z,34.88
2019-03-28T22:30:20.966Z,34.00
2019-03-28T22:32:50.073Z,35.30
2019-03-28T22:35:19.704Z,30.90
2019-03-28T22:37:50.372Z,32.90
2019-03-28T22:40:19.809Z,28.97
2019-03-28T22:42:48.339Z,23.32
2019-03-28T22:45:17.442Z,19.62
2019-03-28T22:47:46.665Z,19.17
2019-03-28T22:50:15.603Z,32.20
2019-03-28T22:52:44.161Z,33.53
2019-03-28T22:55:14.247Z,34.60
2019-03-28T22:57:44.484Z,35.95
2019-03-28T23:00:16.032Z,30.77
2019-03-28T23:02:44.522Z,33.78
2019-03-28T23:05:13.613Z,32.25
2019-03-28T23:07:42.090Z,30.70
2019-03-28T23:10:13.645Z,30.97
2019-03-28T23:12:42.171Z,27.22
2019-03-28T23:15:12.813Z,24.63
2019-03-28T23:17:41.330Z,21.62
2019-03-28T23:20:10.852Z,22.32
2019-03-28T23:22:39.301Z,23.80
2019-03-28T23:25:08.109Z,24.45
2019-03-28T23:27:36.575Z,24.18
2019-03-28T23:30:09.655Z,30.82
2019-03-28T23:32:38.772Z,30.53
2019-03-28T23:35:08.323Z,34.95
2019-03-28T23:37:38.139Z,38.35
2019-03-28T23:40:07.511Z,29.92
2019-03-28T23:42:36.011Z,28.70
2019-03-28T23:45:07.468Z,34.83
2019-03-28T23:47:36.027Z,35.25
2019-03-28T23:50:07.098Z,37.40
2019-03-28T23:52:37.649Z,18.48
2019-03-28T23:55:08.508Z,32.25
2019-03-28T23:57:36.979Z,20.00
